CLT weather

Charlotte Douglas International Airport
Charlotte, North Carolina, United States

Public forecast

Using degrees Fahrenheit for public forecast. Weather courtesy of forecast.io.

METAR (pilot weather report)

Retrieved 2019/02/17 12:52 UTC (42 minutes ago):

KCLT 171252Z 06008KT 010V080 6SM -RA OVC024 03/M02 A3003 RMK AO2 RAB1158 SLP171 P0002 T00331017

TAF (pilot weather forecast)

Retrieved 2019/02/17 12:27 UTC (1 hour ago):

TAF KCLT 171125Z 1712/1818 06006KT P6SM VCSH OVC025 FM171800 07005KT P6SM -RA OVC007 FM172300 12003KT 2SM RA BR OVC004 FM180600 27003KT 3SM -RA BR OVC004 FM181100 27003KT 5SM BR OVC013 FM181400 28005KT 6SM BR BKN080